Time;durP1;ratioP1;P1;durP2;ratioP2;P2;SDS_P1;SDS_P2;PMS_P1;PMS_P2;Temp;Humidity;BMP_temperature;BMP_pressure;BME280_temperature;BME280_humidity;BME280_pressure;Samples;Min_cycle;Max_cycle;Signal;HPM_P1;HPM_P2
2023/06/06 00:01:56;;;;;;;19.67;11.27;;;;;;;22.55;47.12;102325.59;5037177;28;20069;-34
2023/06/06 00:04:23;;;;;;;17.50;11.13;;;;;;;22.54;46.99;102321.22;5002959;28;20492;-34
2023/06/06 00:06:52;;;;;;;16.70;10.95;;;;;;;22.52;47.42;102323.22;4998541;28;20428;-34
2023/06/06 00:09:19;;;;;;;15.10;9.85;;;;;;;22.51;47.29;102319.63;5000233;28;20374;-34
2023/06/06 00:11:48;;;;;;;16.48;10.20;;;;;;;22.50;47.25;102320.66;5005093;28;20046;-33
2023/06/06 00:14:18;;;;;;;17.13;10.07;;;;;;;22.49;47.03;102324.34;4997085;28;20082;-34
2023/06/06 00:16:49;;;;;;;14.55;9.55;;;;;;;22.48;47.01;102314.56;5001130;28;20057;-34
2023/06/06 00:19:20;;;;;;;15.75;9.50;;;;;;;22.47;47.07;102318.22;5000434;28;20053;-35
2023/06/06 00:21:47;;;;;;;16.17;9.77;;;;;;;22.46;47.28;102315.69;5003032;28;20479;-34
2023/06/06 00:24:15;;;;;;;16.20;10.35;;;;;;;22.45;47.27;102320.25;5004184;28;20053;-34
2023/06/06 00:26:42;;;;;;;14.15;9.45;;;;;;;22.44;46.97;102318.53;5004223;28;20046;-34
2023/06/06 00:29:09;;;;;;;17.45;10.43;;;;;;;22.42;47.31;102318.66;5002419;28;20050;-34
2023/06/06 00:31:35;;;;;;;13.48;9.13;;;;;;;22.41;47.40;102318.84;5003770;28;20434;-35
2023/06/06 00:34:02;;;;;;;16.58;9.70;;;;;;;22.40;47.50;102318.00;4999651;28;20125;-34
2023/06/06 00:36:29;;;;;;;16.05;8.98;;;;;;;22.39;47.14;102323.50;5001123;28;20081;-35
2023/06/06 00:38:55;;;;;;;14.05;8.98;;;;;;;22.38;47.12;102325.38;5004355;28;20141;-34
2023/06/06 00:41:22;;;;;;;15.35;8.88;;;;;;;22.37;46.93;102320.97;5003686;28;20042;-34
2023/06/06 00:43:48;;;;;;;12.85;8.68;;;;;;;22.35;47.25;102320.28;5003306;28;20504;-34
2023/06/06 00:46:17;;;;;;;14.07;9.13;;;;;;;22.36;47.25;102323.84;4998216;28;20159;-35
2023/06/06 00:48:45;;;;;;;11.85;7.60;;;;;;;22.35;47.62;102324.81;4999895;28;20482;-35
2023/06/06 00:51:13;;;;;;;13.63;8.65;;;;;;;22.34;47.58;102325.81;5000949;28;20418;-34
2023/06/06 00:53:39;;;;;;;12.95;7.85;;;;;;;22.33;47.26;102332.22;5000865;28;20054;-35
2023/06/06 00:56:06;;;;;;;12.90;8.35;;;;;;;22.32;47.44;102325.13;5002966;28;20084;-34
2023/06/06 00:58:35;;;;;;;11.07;7.50;;;;;;;22.31;47.42;102329.69;4999031;28;20381;-34
2023/06/06 01:01:04;;;;;;;14.48;8.20;;;;;;;22.29;47.48;102322.72;5001697;28;20341;-34
2023/06/06 01:03:32;;;;;;;12.90;7.80;;;;;;;22.28;47.54;102323.72;4999918;28;20049;-34
2023/06/06 01:05:58;;;;;;;12.63;7.70;;;;;;;22.28;47.62;102323.72;5000073;28;20077;-34
2023/06/06 01:08:25;;;;;;;10.65;6.95;;;;;;;22.27;47.66;102324.69;5003117;28;20486;-37
2023/06/06 01:11:00;;;;;;;10.93;7.63;;;;;;;22.26;47.57;102323.00;5004921;28;20046;-34
2023/06/06 01:13:35;;;;;;;10.40;6.60;;;;;;;22.25;47.67;102316.75;5005052;28;20076;-34
2023/06/06 01:16:09;;;;;;;11.80;7.20;;;;;;;22.25;47.71;102315.91;5005905;28;20092;-34
2023/06/06 01:18:37;;;;;;;11.30;7.50;;;;;;;22.25;47.45;102321.28;4998183;28;20053;-35
2023/06/06 01:21:05;;;;;;;12.15;7.10;;;;;;;22.23;47.67;102313.34;4999783;28;20049;-34
2023/06/06 01:23:34;;;;;;;12.23;7.07;;;;;;;22.23;47.67;102321.47;5007816;28;20042;-34
2023/06/06 01:26:05;;;;;;;9.57;6.72;;;;;;;22.22;47.54;102318.88;5008789;28;20100;-34
2023/06/06 01:28:32;;;;;;;11.23;7.07;;;;;;;22.21;47.44;102312.63;5007274;28;20054;-34
2023/06/06 01:30:59;;;;;;;8.60;6.00;;;;;;;22.21;47.67;102322.59;5003579;28;20046;-34
2023/06/06 01:33:36;;;;;;;11.70;6.60;;;;;;;22.17;47.80;102306.66;5001186;28;20579;-35
2023/06/06 01:36:20;;;;;;;9.98;6.15;;;;;;;22.17;47.78;102303.97;5004513;28;20477;-34
2023/06/06 01:39:01;;;;;;;10.32;6.47;;;;;;;22.17;47.57;102309.38;5002914;28;20046;-35
2023/06/06 01:41:29;;;;;;;10.27;6.57;;;;;;;22.17;47.63;102306.66;5002973;28;20045;-34
2023/06/06 01:43:57;;;;;;;8.32;5.57;;;;;;;22.16;47.74;102314.91;5003820;28;20042;-34
2023/06/06 01:46:26;;;;;;;9.63;5.75;;;;;;;22.16;47.70;102314.91;5002089;28;20430;-34
2023/06/06 01:48:54;;;;;;;10.93;6.60;;;;;;;22.14;47.78;102304.25;5004961;28;20081;-34
2023/06/06 01:51:21;;;;;;;8.48;5.68;;;;;;;22.14;47.89;102311.50;5003218;28;20415;-34
2023/06/06 01:53:48;;;;;;;8.70;5.72;;;;;;;22.13;48.08;102310.66;5002363;28;20107;-34
2023/06/06 01:56:14;;;;;;;10.57;5.72;;;;;;;22.12;48.04;102317.03;5007430;28;20225;-34
2023/06/06 01:58:41;;;;;;;8.55;5.85;;;;;;;22.13;48.04;102320.59;5003180;28;20112;-35
2023/06/06 02:01:08;;;;;;;9.20;5.93;;;;;;;22.12;48.23;102318.88;5002661;28;20465;-34
2023/06/06 02:03:36;;;;;;;8.32;4.95;;;;;;;22.11;48.03;102315.31;5002885;28;20139;-35
2023/06/06 02:06:04;;;;;;;7.65;5.00;;;;;;;22.11;47.82;102311.75;5003310;28;20128;-35
2023/06/06 02:08:31;;;;;;;8.57;5.00;;;;;;;22.10;47.96;102313.59;5001434;28;20087;-35
2023/06/06 02:10:58;;;;;;;9.10;5.38;;;;;;;22.09;47.89;102308.34;4999557;28;20053;-34
2023/06/06 02:13:25;;;;;;;7.50;5.10;;;;;;;22.08;47.87;102312.91;5001790;28;20057;-35
2023/06/06 02:15:51;;;;;;;6.35;4.65;;;;;;;22.08;48.09;102306.66;5004069;28;20374;-34
2023/06/06 02:18:18;;;;;;;8.00;4.55;;;;;;;22.06;48.13;102301.38;4998345;28;20367;-35
2023/06/06 02:20:45;;;;;;;7.65;4.82;;;;;;;22.06;48.20;102304.09;5005016;28;20112;-34
2023/06/06 02:23:11;;;;;;;7.97;5.20;;;;;;;22.06;48.16;102301.38;5004243;28;20570;-34
2023/06/06 02:25:38;;;;;;;6.28;4.72;;;;;;;22.05;47.98;102297.00;5003816;28;20053;-34
2023/06/06 02:28:07;;;;;;;6.72;4.43;;;;;;;22.04;47.94;102300.69;5037239;28;20107;-35
2023/06/06 02:30:33;;;;;;;6.80;4.22;;;;;;;22.05;48.17;102301.53;5002585;28;20050;-35
2023/06/06 02:33:00;;;;;;;6.60;4.28;;;;;;;22.03;48.12;102299.00;5001197;28;20054;-34
2023/06/06 02:35:27;;;;;;;5.72;4.15;;;;;;;22.03;47.99;102304.41;5001638;28;20049;-34
2023/06/06 02:37:53;;;;;;;6.70;4.50;;;;;;;22.02;48.25;102302.66;5007031;28;20050;-36
2023/06/06 02:40:20;;;;;;;5.55;3.80;;;;;;;22.02;48.10;102293.72;5007818;28;20096;-35
2023/06/06 02:42:47;;;;;;;5.95;3.90;;;;;;;22.01;47.95;102303.69;5007759;28;20385;-34
2023/06/06 02:45:13;;;;;;;6.47;4.05;;;;;;;22.01;48.22;102297.44;5006876;28;20054;-34
2023/06/06 02:47:40;;;;;;;6.72;4.05;;;;;;;22.00;48.23;102301.97;5009719;28;20046;-34
2023/06/06 02:50:07;;;;;;;6.55;4.00;;;;;;;22.00;48.05;102298.44;5006872;28;20066;-34
2023/06/06 02:52:35;;;;;;;8.25;4.30;;;;;;;21.98;48.21;102301.25;5006968;28;20053;-34
2023/06/06 02:55:02;;;;;;;5.78;3.97;;;;;;;21.98;48.28;102298.56;5008123;28;20050;-35
2023/06/06 02:57:30;;;;;;;6.35;4.30;;;;;;;21.97;47.96;102293.31;5004267;28;20092;-35
2023/06/06 02:59:58;;;;;;;5.95;4.20;;;;;;;21.98;48.41;102303.13;5007347;28;20449;-34
2023/06/06 03:02:25;;;;;;;6.10;4.00;;;;;;;21.97;47.97;102301.41;5004002;28;20038;-34
2023/06/06 03:04:52;;;;;;;4.72;3.22;;;;;;;21.95;48.20;102309.66;4999792;28;20064;-34
2023/06/06 03:07:20;;;;;;;7.10;4.03;;;;;;;21.96;47.93;102307.81;4998903;28;20120;-34
2023/06/06 03:09:47;;;;;;;5.35;3.67;;;;;;;21.93;48.18;102309.78;5003903;28;20082;-35
2023/06/06 03:12:13;;;;;;;6.10;3.65;;;;;;;21.94;48.14;102307.94;4998637;28;20161;-34
2023/06/06 03:14:40;;;;;;;5.28;3.35;;;;;;;21.93;48.18;102308.94;5003813;28;20057;-34
2023/06/06 03:17:21;;;;;;;6.32;3.65;;;;;;;21.93;48.23;102314.34;5001979;28;20046;-34
2023/06/06 03:19:48;;;;;;;5.13;3.25;;;;;;;21.92;48.04;102308.09;5032541;28;20054;-34
2023/06/06 03:22:17;;;;;;;6.32;3.65;;;;;;;21.90;48.11;102299.28;4999339;28;20038;-34
2023/06/06 03:24:49;;;;;;;5.05;3.13;;;;;;;21.90;48.36;102307.38;5001966;28;20104;-34
2023/06/06 03:27:17;;;;;;;4.70;3.33;;;;;;;21.91;47.97;102305.56;5000091;28;20058;-34
2023/06/06 03:29:43;;;;;;;4.65;3.58;;;;;;;21.91;48.07;102308.25;5001030;28;20053;-34
2023/06/06 03:32:10;;;;;;;4.82;3.33;;;;;;;21.91;48.31;102300.16;5014450;28;20038;-34
2023/06/06 03:34:39;;;;;;;4.97;3.15;;;;;;;21.90;48.26;102303.81;4999546;28;20054;-35
2023/06/06 03:37:06;;;;;;;6.15;3.38;;;;;;;21.89;48.18;102311.06;5003850;28;20058;-34
2023/06/06 03:39:33;;;;;;;5.65;3.30;;;;;;;21.89;48.15;102312.94;5002083;28;20073;-34
2023/06/06 03:42:00;;;;;;;5.70;3.10;;;;;;;21.88;47.98;102313.94;4999964;28;20049;-35
2023/06/06 03:44:26;;;;;;;4.32;2.90;;;;;;;21.86;48.27;102305.13;5003139;28;20054;-35
2023/06/06 03:46:53;;;;;;;5.53;3.13;;;;;;;21.86;48.16;102297.00;5000746;28;20056;-34
2023/06/06 03:49:20;;;;;;;3.88;2.88;;;;;;;21.86;48.21;102299.72;5001843;28;20096;-34
2023/06/06 03:51:47;;;;;;;3.70;2.85;;;;;;;21.85;48.16;102306.13;4998505;28;20081;-35
2023/06/06 03:54:13;;;;;;;5.63;3.25;;;;;;;21.86;48.33;102302.41;4998710;28;20468;-34
2023/06/06 03:56:42;;;;;;;9.07;3.33;;;;;;;21.85;48.38;102306.13;5000118;28;20050;-34
2023/06/06 03:59:11;;;;;;;7.95;3.47;;;;;;;21.85;48.34;102306.13;5002898;28;20054;-34
2023/06/06 04:01:40;;;;;;;7.18;3.25;;;;;;;21.84;48.47;102305.25;5003036;28;20065;-34
2023/06/06 04:04:08;;;;;;;5.68;3.40;;;;;;;21.84;48.35;102304.41;4995201;28;20134;-34
2023/06/06 04:06:35;;;;;;;7.85;4.10;;;;;;;21.84;48.36;102305.25;4998530;28;20141;-34
2023/06/06 04:09:03;;;;;;;9.45;3.95;;;;;;;21.83;48.39;102308.09;4995169;28;20080;-34
2023/06/06 04:11:29;;;;;;;13.90;4.63;;;;;;;21.82;48.39;102306.41;4999001;28;20050;-35
2023/06/06 04:13:56;;;;;;;9.23;4.18;;;;;;;21.82;48.37;102304.53;5000553;28;20064;-34
2023/06/06 04:16:23;;;;;;;8.13;4.72;;;;;;;21.83;48.05;102316.19;4996056;28;20050;-37
2023/06/06 04:18:52;;;;;;;8.73;5.10;;;;;;;21.82;48.20;102312.63;5001466;28;20112;-34
2023/06/06 04:21:19;;;;;;;8.73;5.80;;;;;;;21.81;48.23;102310.94;5004903;28;20050;-35
2023/06/06 04:23:46;;;;;;;12.68;6.85;;;;;;;21.81;48.37;102313.63;5003696;28;20112;-36
2023/06/06 04:26:27;;;;;;;12.45;7.13;;;;;;;21.80;48.50;102309.25;5004245;28;20120;-35
2023/06/06 04:28:58;;;;;;;16.17;8.40;;;;;;;21.80;48.32;102306.53;5001769;28;20437;-35
2023/06/06 04:31:29;;;;;;;15.65;9.77;;;;;;;21.82;48.06;102311.78;5005955;28;20046;-36
2023/06/06 04:33:56;;;;;;;13.93;8.85;;;;;;;21.80;47.96;102314.66;5000867;28;20082;-34
2023/06/06 04:36:24;;;;;;;14.77;8.68;;;;;;;21.80;48.30;102305.69;5001105;28;20104;-34
2023/06/06 04:38:51;;;;;;;17.38;10.02;;;;;;;21.80;48.02;102311.94;4998529;28;20050;-35
2023/06/06 04:41:22;;;;;;;15.20;9.88;;;;;;;21.80;47.80;102309.25;5004623;28;20077;-35
2023/06/06 04:44:10;;;;;;;16.58;10.00;;;;;;;21.81;48.04;102310.09;5000123;28;20342;-34
2023/06/06 04:46:37;;;;;;;17.00;10.80;;;;;;;21.81;48.12;102308.25;5007161;28;20053;-33
2023/06/06 04:49:04;;;;;;;17.23;10.38;;;;;;;21.82;47.97;102312.63;5004723;28;20116;-34
2023/06/06 04:51:33;;;;;;;17.38;10.90;;;;;;;21.82;48.08;102306.41;5002391;28;20053;-35
2023/06/06 04:54:02;;;;;;;17.38;11.65;;;;;;;21.83;47.73;102302.69;5002967;28;20100;-35
2023/06/06 04:56:29;;;;;;;15.65;9.98;;;;;;;21.83;47.67;102311.66;5005580;28;20053;-34
2023/06/06 04:58:57;;;;;;;20.23;11.18;;;;;;;21.85;47.77;102303.41;5004649;28;20081;-34
2023/06/06 05:01:23;;;;;;;19.98;11.25;;;;;;;21.87;47.84;102304.09;5004287;28;20134;-33
2023/06/06 05:03:54;;;;;;;21.20;11.82;;;;;;;21.87;48.11;102307.69;5001762;28;20050;-36
2023/06/06 05:06:21;;;;;;;18.25;11.50;;;;;;;21.90;47.76;102312.78;5004621;28;20074;-34
2023/06/06 05:08:48;;;;;;;16.92;11.57;;;;;;;21.90;47.95;102312.78;5002240;28;20331;-34
2023/06/06 05:11:18;;;;;;;17.05;10.93;;;;;;;21.91;47.73;102314.50;5004864;28;20049;-34
2023/06/06 05:13:44;;;;;;;18.92;11.73;;;;;;;21.93;47.85;102311.66;5001534;28;20489;-34
2023/06/06 05:16:11;;;;;;;20.73;11.73;;;;;;;21.94;47.73;102311.50;5006392;28;20050;-34
2023/06/06 05:18:38;;;;;;;17.88;11.70;;;;;;;21.95;47.68;102306.97;5034311;28;20050;-34
2023/06/06 05:21:04;;;;;;;16.83;10.70;;;;;;;21.97;47.64;102313.06;5001708;28;20054;-34
2023/06/06 05:23:31;;;;;;;16.98;10.45;;;;;;;21.98;47.54;102306.66;5003669;28;20100;-34
2023/06/06 05:25:58;;;;;;;16.30;10.48;;;;;;;22.00;47.65;102299.28;5005419;28;20053;-34
2023/06/06 05:28:28;;;;;;;16.40;10.38;;;;;;;22.01;47.44;102306.38;5007507;28;20060;-34
2023/06/06 05:30:58;;;;;;;15.60;10.63;;;;;;;22.04;47.68;102305.25;5002826;28;20393;-35
2023/06/06 05:33:30;;;;;;;16.20;11.52;;;;;;;22.04;47.55;102306.09;5000474;28;20162;-33
2023/06/06 05:35:57;;;;;;;17.40;10.95;;;;;;;22.06;47.25;102304.09;4998507;28;20133;-36
2023/06/06 05:38:25;;;;;;;19.98;12.10;;;;;;;22.08;47.25;102301.25;4997845;28;20047;-33
2023/06/06 05:40:52;;;;;;;17.90;11.65;;;;;;;22.10;47.31;102304.66;5005916;28;20518;-33
2023/06/06 05:43:18;;;;;;;17.42;11.35;;;;;;;22.10;46.92;102300.09;5000815;28;20053;-34
2023/06/06 05:45:45;;;;;;;18.10;11.10;;;;;;;22.12;47.14;102310.78;5005436;28;20085;-34
2023/06/06 05:48:12;;;;;;;19.92;12.05;;;;;;;22.14;47.10;102311.50;5008902;28;20050;-34
2023/06/06 05:50:38;;;;;;;17.95;10.90;;;;;;;22.14;47.06;102314.19;5003469;28;20105;-34
2023/06/06 05:53:05;;;;;;;19.88;12.15;;;;;;;22.16;46.93;102304.97;4998924;28;20050;-34
2023/06/06 05:55:33;;;;;;;17.13;10.48;;;;;;;22.17;46.91;102306.66;5004634;28;20046;-33
2023/06/06 05:58:01;;;;;;;17.35;11.57;;;;;;;22.20;46.97;102312.78;5002710;28;20504;-36
2023/06/06 06:00:30;;;;;;;16.67;10.98;;;;;;;22.21;46.80;102309.06;5002997;28;20045;-33
2023/06/06 06:02:58;;;;;;;17.55;11.68;;;;;;;22.21;46.71;102311.78;5005402;28;20442;-35
2023/06/06 06:05:29;;;;;;;17.90;11.50;;;;;;;22.21;46.66;102309.94;5022567;28;20105;-34
2023/06/06 06:08:00;;;;;;;18.65;10.73;;;;;;;22.22;46.65;102313.47;5003693;28;20051;-33
2023/06/06 06:10:32;;;;;;;17.98;11.32;;;;;;;22.22;46.45;102306.22;5002840;28;20143;-34
2023/06/06 06:13:00;;;;;;;16.05;10.75;;;;;;;22.22;46.51;102295.41;4996357;28;20043;-33
2023/06/06 06:15:29;;;;;;;17.15;11.00;;;;;;;22.23;46.37;102304.38;5001606;28;20050;-33
2023/06/06 06:17:58;;;;;;;16.10;10.38;;;;;;;22.21;46.63;102309.94;4997863;28;20054;-33
2023/06/06 06:20:25;;;;;;;15.20;10.18;;;;;;;22.23;46.53;102309.78;5002441;28;20311;-33
2023/06/06 06:22:51;;;;;;;14.15;9.70;;;;;;;22.22;46.37;102308.06;5000045;28;20370;-33
2023/06/06 06:25:19;;;;;;;13.98;9.60;;;;;;;22.22;46.60;102308.91;5000577;28;20438;-33
2023/06/06 06:27:47;;;;;;;17.45;10.00;;;;;;;22.23;46.39;102309.78;4997587;28;20136;-34
2023/06/06 06:30:14;;;;;;;17.00;10.32;;;;;;;22.23;46.65;102309.78;5000656;28;20173;-34
2023/06/06 06:32:44;;;;;;;14.98;9.48;;;;;;;22.22;46.85;102311.63;5001292;28;20046;-33
2023/06/06 06:35:11;;;;;;;15.38;9.85;;;;;;;22.23;46.68;102310.66;4998661;28;20046;-34
2023/06/06 06:37:39;;;;;;;13.45;9.07;;;;;;;22.23;46.62;102315.16;5000826;28;20050;-34
2023/06/06 06:40:10;;;;;;;14.75;9.82;;;;;;;22.24;46.57;102311.50;5001153;28;20046;-33
2023/06/06 06:42:42;;;;;;;16.50;10.45;;;;;;;22.25;46.67;102319.44;5005421;28;20529;-34
2023/06/06 06:45:12;;;;;;;14.85;9.52;;;;;;;22.25;46.61;102313.19;5003777;28;20050;-34
2023/06/06 06:47:40;;;;;;;13.90;9.50;;;;;;;22.26;46.50;102307.63;5001000;28;20093;-34
2023/06/06 06:50:07;;;;;;;13.10;8.85;;;;;;;22.26;46.48;102317.59;4999893;28;20046;-34
2023/06/06 06:52:35;;;;;;;16.42;9.65;;;;;;;22.27;46.11;102314.75;5002560;28;20322;-34
2023/06/06 06:55:04;;;;;;;16.48;9.55;;;;;;;22.26;46.38;102310.34;5002365;28;20061;-34
2023/06/06 06:57:33;;;;;;;11.88;8.20;;;;;;;22.27;46.32;102313.88;4999468;28;20050;-34
2023/06/06 07:00:12;;;;;;;13.25;9.55;;;;;;;22.26;46.26;102315.72;5006539;28;20045;-35
2023/06/06 07:02:42;;;;;;;15.73;8.85;;;;;;;22.27;45.94;102314.75;5004121;28;20348;-34
2023/06/06 07:05:10;;;;;;;13.55;8.98;;;;;;;22.27;46.25;102312.06;5003169;28;20393;-35
2023/06/06 07:07:52;;;;;;;13.07;8.40;;;;;;;22.26;46.27;102317.59;5001502;28;20050;-35
2023/06/06 07:10:21;;;;;;;14.35;8.45;;;;;;;22.27;46.28;102311.19;5002741;28;20050;-34
2023/06/06 07:12:50;;;;;;;12.90;8.40;;;;;;;22.28;46.19;102316.47;5004946;28;20419;-35
2023/06/06 07:15:17;;;;;;;14.30;8.57;;;;;;;22.26;46.42;102310.34;5000962;28;20191;-34
2023/06/06 07:17:49;;;;;;;12.65;8.30;;;;;;;22.28;46.43;102310.22;5002905;28;20117;-34
2023/06/06 07:20:20;;;;;;;13.18;8.10;;;;;;;22.27;46.38;102305.78;5004733;28;20430;-34
2023/06/06 07:22:47;;;;;;;11.13;7.60;;;;;;;22.29;46.22;102309.19;5003212;28;20042;-34
2023/06/06 07:25:14;;;;;;;11.35;7.70;;;;;;;22.29;46.41;102309.19;5000077;28;20412;-35
2023/06/06 07:27:41;;;;;;;13.13;7.70;;;;;;;22.28;46.27;102308.34;4998533;28;20085;-34
2023/06/06 07:30:12;;;;;;;13.07;7.93;;;;;;;22.29;46.44;102309.19;4996093;28;20048;-34
2023/06/06 07:32:41;;;;;;;11.40;7.75;;;;;;;22.30;46.32;102310.91;4998676;28;20095;-34
2023/06/06 07:35:12;;;;;;;10.95;7.03;;;;;;;22.30;46.34;102308.19;4997263;28;20057;-34
2023/06/06 07:37:39;;;;;;;17.88;7.90;;;;;;;22.31;46.31;102312.59;5000053;28;20077;-34
2023/06/06 07:40:08;;;;;;;28.33;9.57;;;;;;;22.31;46.36;102312.59;4998782;28;20061;-34
2023/06/06 07:42:36;;;;;;;30.52;10.07;;;;;;;22.32;46.13;102306.22;4999125;28;20045;-35
2023/06/06 07:45:03;;;;;;;27.65;10.23;;;;;;;22.31;46.27;102299.97;5027281;28;20359;-34
2023/06/06 07:47:30;;;;;;;53.70;9.95;;;;;;;22.34;46.20;102315.00;5004416;28;20120;-34
2023/06/06 07:49:56;;;;;;;24.88;9.70;;;;;;;22.33;46.27;102306.06;5001937;28;20084;-34
2023/06/06 07:52:25;;;;;;;25.73;10.68;;;;;;;22.34;46.02;102302.34;4999148;28;20050;-35
2023/06/06 07:54:51;;;;;;;25.75;9.82;;;;;;;22.34;46.14;102302.34;4999067;28;20061;-35
2023/06/06 07:57:19;;;;;;;24.30;9.10;;;;;;;22.35;46.27;102301.38;4998108;28;20050;-34
2023/06/06 07:59:46;;;;;;;23.73;10.07;;;;;;;22.35;46.11;102308.59;4994443;28;20050;-34
2023/06/06 08:02:14;;;;;;;27.85;10.55;;;;;;;22.36;46.19;102299.53;4999953;28;20049;-35
2023/06/06 08:04:45;;;;;;;37.40;10.45;;;;;;;22.36;45.94;102294.13;4999097;28;20434;-35
2023/06/06 08:07:13;;;;;;;34.28;9.85;;;;;;;22.35;46.11;102301.38;4998460;28;20054;-34
2023/06/06 08:09:42;;;;;;;36.15;10.20;;;;;;;22.36;46.46;102305.78;4997509;28;20120;-34
2023/06/06 08:12:10;;;;;;;23.90;9.10;;;;;;;22.37;46.29;102301.22;4999462;28;20057;-34
2023/06/06 08:14:37;;;;;;;26.38;9.50;;;;;;;22.37;46.30;102301.22;4997063;28;20053;-35
2023/06/06 08:17:04;;;;;;;19.77;9.23;;;;;;;22.37;46.26;102302.06;5004597;28;20713;-34
2023/06/06 08:19:31;;;;;;;23.52;8.82;;;;;;;22.38;46.39;102306.47;5002819;28;20042;-35
2023/06/06 08:21:58;;;;;;;24.40;8.40;;;;;;;22.39;46.37;102301.91;5005710;28;20096;-34
2023/06/06 08:24:24;;;;;;;24.30;8.35;;;;;;;22.39;45.78;102305.50;5006642;28;20058;-34
2023/06/06 08:26:51;;;;;;;22.92;8.40;;;;;;;22.39;46.13;102294.69;5003600;28;20128;-35
2023/06/06 08:29:18;;;;;;;26.45;8.38;;;;;;;22.40;46.06;102293.66;5001011;28;20046;-35
2023/06/06 08:31:45;;;;;;;23.77;8.95;;;;;;;22.41;46.34;102294.53;5004711;28;20393;-35
2023/06/06 08:34:12;;;;;;;21.23;8.57;;;;;;;22.41;46.32;102298.06;5005387;28;20045;-34
2023/06/06 08:36:39;;;;;;;19.58;8.10;;;;;;;22.42;46.14;102293.50;5009141;28;20038;-34
2023/06/06 08:39:06;;;;;;;16.48;7.00;;;;;;;22.43;46.22;102289.81;5010414;28;20057;-34
2023/06/06 08:41:34;;;;;;;14.48;7.18;;;;;;;22.43;46.04;102287.09;5005723;28;20417;-34
2023/06/06 08:44:03;;;;;;;17.27;7.30;;;;;;;22.43;45.91;102292.50;5007630;28;20161;-35
2023/06/06 08:46:34;;;;;;;22.13;7.93;;;;;;;22.44;45.84;102296.94;5007376;28;20047;-34
2023/06/06 08:49:04;;;;;;;15.18;7.40;;;;;;;22.45;46.11;102298.63;5004388;28;20050;-35
2023/06/06 08:51:31;;;;;;;16.27;6.88;;;;;;;22.46;46.03;102297.63;5007922;28;20077;-36
2023/06/06 08:54:02;;;;;;;16.75;6.40;;;;;;;22.46;46.01;102300.31;5007467;28;20108;-35
2023/06/06 08:56:29;;;;;;;15.30;6.72;;;;;;;22.48;45.99;102298.34;5003150;28;20048;-34
2023/06/06 08:58:56;;;;;;;18.20;6.78;;;;;;;22.49;46.44;102293.78;5004428;28;20057;-34
2023/06/06 09:01:22;;;;;;;17.15;7.03;;;;;;;22.52;45.94;102307.00;5002796;28;20140;-35
2023/06/06 09:03:52;;;;;;;16.63;6.07;;;;;;;22.52;46.24;102301.59;5001049;28;20046;-35
2023/06/06 09:06:22;;;;;;;14.90;5.70;;;;;;;22.55;45.69;102290.47;5001883;28;20042;-34
2023/06/06 09:08:49;;;;;;;18.98;6.43;;;;;;;22.57;45.99;102300.16;5001602;28;20140;-34
2023/06/06 09:11:17;;;;;;;15.32;5.93;;;;;;;22.57;45.87;102299.28;5001603;28;20050;-35
2023/06/06 09:13:45;;;;;;;11.25;5.28;;;;;;;22.60;45.77;102299.00;5006144;28;20050;-34
2023/06/06 09:16:15;;;;;;;13.70;5.60;;;;;;;22.60;46.13;102291.75;5002075;28;20442;-34
2023/06/06 09:18:42;;;;;;;14.20;5.80;;;;;;;22.63;45.67;102299.56;5004688;28;20049;-34
2023/06/06 09:21:09;;;;;;;13.15;5.40;;;;;;;22.64;45.90;102303.97;5003089;28;20050;-34
2023/06/06 09:23:36;;;;;;;12.68;5.28;;;;;;;22.67;45.88;102300.97;5004180;28;20045;-35
2023/06/06 09:26:03;;;;;;;9.38;5.30;;;;;;;22.70;45.91;102301.66;5002604;28;20054;-34
2023/06/06 09:28:40;;;;;;;8.23;4.90;;;;;;;22.73;45.79;102301.38;5003900;28;20172;-35
2023/06/06 09:31:32;;;;;;;11.68;5.22;;;;;;;22.75;45.87;102293.94;5000955;28;20062;-35
2023/06/06 09:34:00;;;;;;;12.98;5.45;;;;;;;22.77;45.65;102300.91;4999904;28;20149;-34
2023/06/06 09:36:28;;;;;;;12.13;4.72;;;;;;;22.81;45.28;102290.66;5005388;28;20046;-35
2023/06/06 09:39:05;;;;;;;9.98;5.15;;;;;;;22.82;45.68;102295.91;5003123;28;20628;-34
2023/06/06 09:41:39;;;;;;;8.90;5.07;;;;;;;22.86;45.39;102296.47;5004662;28;20054;-35
2023/06/06 09:44:15;;;;;;;12.02;4.65;;;;;;;22.88;45.58;102297.16;5003167;28;20518;-35
2023/06/06 09:46:42;;;;;;;10.38;4.45;;;;;;;22.90;45.13;102292.44;5004548;28;20050;-34
2023/06/06 09:49:12;;;;;;;7.25;3.97;;;;;;;22.93;45.52;102294.03;5003292;28;20060;-35
2023/06/06 09:51:42;;;;;;;7.95;4.63;;;;;;;22.95;45.43;102297.44;5001767;28;20145;-35
2023/06/06 09:54:10;;;;;;;9.10;4.18;;;;;;;22.97;45.23;102290.88;5001002;28;20093;-35
2023/06/06 09:56:40;;;;;;;7.90;4.40;;;;;;;22.99;45.32;102288.00;5002035;28;20061;-34
2023/06/06 09:59:08;;;;;;;10.57;4.07;;;;;;;23.01;45.38;102283.31;5004359;28;20095;-34
2023/06/06 10:01:38;;;;;;;8.85;4.43;;;;;;;23.02;45.04;102287.72;5005340;28;20050;-34
2023/06/06 10:04:07;;;;;;;5.85;3.92;;;;;;;23.06;45.39;102297.22;5001340;28;20113;-34
2023/06/06 10:06:34;;;;;;;8.30;4.70;;;;;;;23.06;44.93;102289.97;5006617;28;20046;-34
2023/06/06 10:09:03;;;;;;;7.90;3.97;;;;;;;23.08;45.33;102287.97;5004147;28;20057;-34
2023/06/06 10:11:32;;;;;;;7.95;4.15;;;;;;;23.10;44.96;102282.41;5000036;28;20082;-34
2023/06/06 10:13:59;;;;;;;13.90;4.05;;;;;;;23.12;44.72;102292.06;5001769;28;20157;-34
2023/06/06 10:16:29;;;;;;;6.60;3.53;;;;;;;23.13;45.05;102288.34;5002051;28;20046;-34
2023/06/06 10:18:57;;;;;;;6.68;4.18;;;;;;;23.15;44.91;102297.16;5003136;28;20133;-34
2023/06/06 10:21:24;;;;;;;6.38;3.60;;;;;;;23.17;44.88;102288.91;5006189;28;20050;-34
2023/06/06 10:23:52;;;;;;;7.30;4.25;;;;;;;23.19;45.07;102288.75;4998265;28;20056;-35
2023/06/06 10:26:29;;;;;;;8.80;3.97;;;;;;;23.20;44.85;102280.50;5002842;28;20050;-34
2023/06/06 10:29:08;;;;;;;6.75;3.35;;;;;;;23.21;44.88;102295.72;5004483;28;20053;-35
2023/06/06 10:31:47;;;;;;;5.80;3.45;;;;;;;23.24;44.53;102289.16;4999387;28;20060;-34
2023/06/06 10:34:20;;;;;;;6.55;2.90;;;;;;;23.25;44.76;102288.16;5004673;28;20043;-35
2023/06/06 10:36:46;;;;;;;7.32;4.05;;;;;;;23.26;44.86;102279.88;5003700;28;20177;-34
2023/06/06 10:39:24;;;;;;;7.40;3.70;;;;;;;23.27;45.00;102283.41;5002840;28;20057;-34
2023/06/06 10:41:57;;;;;;;9.02;3.20;;;;;;;23.28;44.34;102274.31;5002503;28;20057;-34
2023/06/06 10:44:37;;;;;;;9.45;3.40;;;;;;;23.28;44.54;102280.59;5002198;28;20081;-35
2023/06/06 10:47:33;;;;;;;6.80;2.95;;;;;;;23.28;44.91;102269.75;5006672;28;20042;-35
2023/06/06 10:50:16;;;;;;;6.95;3.40;;;;;;;23.30;44.71;102275.00;4998284;28;20045;-34
2023/06/06 10:52:51;;;;;;;7.85;3.50;;;;;;;23.31;44.71;102282.94;5002986;28;20108;-35
2023/06/06 10:55:20;;;;;;;5.75;3.00;;;;;;;23.33;44.73;102280.13;5002127;28;22229;-35
2023/06/06 10:58:03;;;;;;;6.70;3.35;;;;;;;23.32;44.58;102273.84;5004591;28;20145;-35
2023/06/06 11:00:34;;;;;;;8.15;3.80;;;;;;;23.34;44.11;102279.09;5000548;28;20133;-35
2023/06/06 11:03:05;;;;;;;6.68;3.10;;;;;;;23.34;44.20;102266.41;5003555;28;20052;-34
2023/06/06 11:05:32;;;;;;;5.63;3.42;;;;;;;23.35;44.35;102281.63;5002479;28;20046;-34
2023/06/06 11:08:02;;;;;;;7.32;3.30;;;;;;;23.36;44.40;102277.09;5002329;28;20133;-34
2023/06/06 11:10:46;;;;;;;6.45;3.10;;;;;;;23.37;44.36;102271.53;5005630;28;20104;-35
2023/06/06 11:13:26;;;;;;;6.03;3.08;;;;;;;23.39;44.32;102266.78;5000775;28;20414;-35
2023/06/06 11:15:56;;;;;;;7.13;3.15;;;;;;;23.41;44.03;102269.38;5001881;28;20065;-34
2023/06/06 11:18:39;;;;;;;5.30;2.88;;;;;;;23.41;44.44;102269.38;5002705;28;20050;-35
2023/06/06 11:21:06;;;;;;;6.43;2.95;;;;;;;23.44;43.95;102266.34;5002969;28;20101;-35
2023/06/06 11:23:42;;;;;;;5.00;2.78;;;;;;;23.45;44.31;102259.09;4999952;28;20077;-34
2023/06/06 11:26:09;;;;;;;4.35;2.75;;;;;;;23.47;43.98;102273.31;4999122;28;20399;-35
2023/06/06 11:28:40;;;;;;;4.97;2.70;;;;;;;23.48;44.16;102258.75;5000888;28;20358;-35